Time;durP1;ratioP1;P1;durP2;ratioP2;P2;SDS_P1;SDS_P2;PMS_P1;PMS_P2;Temp;Humidity;BMP_temperature;BMP_pressure;BME280_temperature;BME280_humidity;BME280_pressure;Samples;Min_cycle;Max_cycle;Signal;HPM_P1;HPM_P2
2022/06/08 00:01:05;;;;;;;0.00;0.00;;;18.40;99.90;;;;;;4928148;29;20381;-66
2022/06/08 00:03:53;;;;;;;0.00;0.00;;;18.30;99.90;;;;;;4889322;29;1153737;-66
2022/06/08 00:06:19;;;;;;;0.00;0.00;;;18.30;99.90;;;;;;4946302;29;20031;-67
2022/06/08 00:08:45;;;;;;;0.00;0.00;;;18.30;99.90;;;;;;4944684;29;20046;-67
2022/06/08 00:11:12;;;;;;;0.00;0.00;;;18.20;99.90;;;;;;4929525;29;20020;-68
2022/06/08 00:13:38;;;;;;;0.00;0.00;;;18.30;99.90;;;;;;4928933;29;20023;-66
2022/06/08 00:16:05;;;;;;;0.00;0.00;;;18.30;99.90;;;;;;4928898;29;20019;-67
2022/06/08 00:18:30;;;;;;;0.00;0.00;;;18.20;99.90;;;;;;4946331;29;20219;-67
2022/06/08 00:20:56;;;;;;;0.00;0.00;;;18.20;99.90;;;;;;4945712;29;20031;-66
2022/06/08 00:23:22;;;;;;;0.00;0.00;;;18.20;99.90;;;;;;4929463;29;20023;-67
2022/06/08 00:25:48;;;;;;;0.00;0.00;;;18.10;99.90;;;;;;4929050;29;20042;-67
2022/06/08 00:28:14;;;;;;;0.00;0.00;;;18.10;99.90;;;;;;4929356;29;20080;-67
2022/06/08 00:30:41;;;;;;;0.00;0.00;;;18.10;99.90;;;;;;4946000;29;20015;-68
2022/06/08 00:33:06;;;;;;;0.00;0.00;;;18.10;99.90;;;;;;4945861;29;20107;-67
2022/06/08 00:35:32;;;;;;;0.00;0.00;;;18.10;99.90;;;;;;4946022;29;20131;-68
2022/06/08 00:37:58;;;;;;;0.00;0.00;;;18.00;99.90;;;;;;4945405;29;20035;-68
2022/06/08 00:40:37;;;;;;;0.00;0.00;;;18.00;99.90;;;;;;4929156;29;20094;-67
2022/06/08 00:43:03;;;;;;;0.00;0.00;;;18.00;99.90;;;;;;4945733;29;20026;-67
2022/06/08 00:45:29;;;;;;;0.00;0.00;;;18.00;99.90;;;;;;4945880;29;20054;-68
2022/06/08 00:48:01;;;;;;;0.00;0.00;;;17.90;99.90;;;;;;4945377;29;20209;-68
2022/06/08 00:50:53;;;;;;;0.00;0.00;;;17.90;99.90;;;;;;4945542;29;20031;-68
2022/06/08 00:53:26;;;;;;;0.00;0.00;;;17.90;99.90;;;;;;4939160;29;20064;-67
2022/06/08 00:55:53;;;;;;;0.00;0.00;;;17.90;99.90;;;;;;4945589;29;20079;-67
2022/06/08 00:58:24;;;;;;;0.00;0.00;;;17.80;99.90;;;;;;4945890;29;20032;-68
2022/06/08 01:00:51;;;;;;;0.00;0.00;;;17.80;99.90;;;;;;4945393;29;20016;-67
2022/06/08 01:03:17;;;;;;;0.00;0.00;;;17.80;99.90;;;;;;4928529;29;20118;-67
2022/06/08 01:06:03;;;;;;;0.00;0.00;;;17.80;99.90;;;;;;4945151;29;20027;-68
2022/06/08 01:08:42;;;;;;;0.00;0.00;;;17.80;99.90;;;;;;4928841;29;20286;-68
2022/06/08 01:11:31;;;;;;;0.00;0.00;;;17.80;99.90;;;;;;4945412;29;20358;-67
2022/06/08 01:14:01;;;;;;;0.00;0.00;;;17.80;99.90;;;;;;4926695;29;20227;-67
2022/06/08 01:16:27;;;;;;;0.00;0.00;;;17.80;99.90;;;;;;4928635;29;20023;-67
2022/06/08 01:18:54;;;;;;;0.00;0.00;;;17.80;99.90;;;;;;4945102;29;20148;-68
2022/06/08 01:21:22;;;;;;;0.00;0.00;;;17.80;99.90;;;;;;4945780;29;20067;-67
2022/06/08 01:23:48;;;;;;;;;;;17.80;99.90;;;;;;4945555;29;20048;-68
2022/06/08 01:26:42;;;;;;;0.00;0.00;;;17.80;99.90;;;;;;4945231;29;19965;-67
2022/06/08 01:29:29;;;;;;;0.00;0.00;;;17.80;99.90;;;;;;4928511;29;20103;-66
2022/06/08 01:32:19;;;;;;;0.00;0.00;;;17.80;99.90;;;;;;4928036;29;20062;-66
2022/06/08 01:35:00;;;;;;;0.00;0.00;;;17.80;99.90;;;;;;4945122;29;20046;-66
2022/06/08 01:38:10;;;;;;;0.00;0.00;;;17.80;99.90;;;;;;4928247;29;20028;-67
2022/06/08 01:41:00;;;;;;;0.00;0.00;;;17.80;99.90;;;;;;4886623;29;20270;-66
2022/06/08 01:43:44;;;;;;;0.00;0.00;;;17.80;99.90;;;;;;4886652;29;20060;-66
2022/06/08 01:46:28;;;;;;;0.00;0.00;;;17.80;99.90;;;;;;4886548;29;20033;-67
2022/06/08 01:48:55;;;;;;;0.00;0.00;;;17.80;99.90;;;;;;4886155;29;20335;-66
2022/06/08 01:51:35;;;;;;;0.00;0.00;;;17.80;99.90;;;;;;4886562;29;20339;-67
2022/06/08 01:54:07;;;;;;;0.00;0.00;;;17.80;99.90;;;;;;4886233;29;20373;-67
2022/06/08 01:56:41;;;;;;;0.00;0.00;;;17.80;99.90;;;;;;4886657;29;20021;-67
2022/06/08 01:59:28;;;;;;;0.00;0.00;;;17.80;99.90;;;;;;4886673;29;20045;-66
2022/06/08 02:02:04;;;;;;;0.00;0.00;;;17.80;99.90;;;;;;4885910;29;20054;-67
2022/06/08 02:04:38;;;;;;;0.00;0.00;;;17.70;99.90;;;;;;4886194;29;20284;-66
2022/06/08 02:07:10;;;;;;;0.00;0.00;;;17.70;99.90;;;;;;4886159;29;20086;-67
2022/06/08 02:10:16;;;;;;;0.00;0.00;;;17.70;99.90;;;;;;4886305;29;20383;-67
2022/06/08 02:12:50;;;;;;;0.00;0.00;;;17.70;99.90;;;;;;4944703;29;20030;-68
2022/06/08 02:15:31;;;;;;;0.00;0.00;;;17.70;99.90;;;;;;4944760;29;20019;-67
2022/06/08 02:18:00;;;;;;;0.00;0.00;;;17.70;99.90;;;;;;4944523;29;20036;-66
2022/06/08 02:20:34;;;;;;;0.00;0.00;;;17.70;99.90;;;;;;4944874;29;20064;-66
2022/06/08 02:23:18;;;;;;;0.00;0.00;;;17.60;99.90;;;;;;4944655;29;20196;-68
2022/06/08 02:25:53;;;;;;;0.00;0.00;;;17.70;99.90;;;;;;4930246;29;20030;-67
2022/06/08 02:28:24;;;;;;;0.00;0.00;;;17.70;99.90;;;;;;4948473;29;20026;-67
2022/06/08 02:30:53;;;;;;;0.00;0.00;;;17.70;99.90;;;;;;4947670;29;20024;-68
2022/06/08 02:36:28;;;;;;;0.00;0.00;;;17.70;99.90;;;;;;4948086;29;20337;-67
2022/06/08 02:39:03;;;;;;;0.00;0.00;;;17.70;99.90;;;;;;4946652;29;20055;-68
2022/06/08 02:41:31;;;;;;;0.00;0.00;;;17.60;99.90;;;;;;4931245;29;20049;-67
2022/06/08 02:44:03;;;;;;;0.00;0.00;;;17.60;99.90;;;;;;4947769;29;20027;-68
2022/06/08 02:46:38;;;;;;;0.00;0.00;;;17.60;99.90;;;;;;4948056;29;20028;-68
2022/06/08 02:49:09;;;;;;;0.00;0.00;;;17.60;99.90;;;;;;4930635;29;20066;-68
2022/06/08 02:51:36;;;;;;;0.00;0.00;;;17.60;99.90;;;;;;4947703;29;20337;-67
2022/06/08 02:54:06;;;;;;;0.00;0.00;;;17.60;99.90;;;;;;4947666;29;20067;-68
2022/06/08 02:56:57;;;;;;;0.00;0.00;;;17.60;99.90;;;;;;4947871;29;20019;-66
2022/06/08 02:59:54;;;;;;;0.00;0.00;;;17.60;99.90;;;;;;4925602;29;20227;-67
2022/06/08 03:02:30;;;;;;;0.00;0.00;;;17.60;99.90;;;;;;4947686;29;20250;-66
2022/06/08 03:05:05;;;;;;;0.00;0.00;;;17.60;99.90;;;;;;4946999;29;20064;-66
2022/06/08 03:07:38;;;;;;;0.00;0.00;;;17.60;99.90;;;;;;4947674;29;20020;-66
2022/06/08 03:10:09;;;;;;;0.00;0.00;;;17.70;99.90;;;;;;4947357;29;20054;-67
2022/06/08 03:12:38;;;;;;;0.00;0.00;;;17.70;99.90;;;;;;4947698;29;20043;-67
2022/06/08 03:15:09;;;;;;;0.00;0.00;;;17.70;99.90;;;;;;4946918;29;20315;-67
2022/06/08 03:17:37;;;;;;;0.00;0.00;;;17.70;99.90;;;;;;4947594;29;20079;-68
2022/06/08 03:20:07;;;;;;;0.00;0.00;;;17.70;99.90;;;;;;4930108;29;20019;-67
2022/06/08 03:22:33;;;;;;;0.00;0.00;;;17.80;99.90;;;;;;4947679;29;20023;-67
2022/06/08 03:24:59;;;;;;;0.00;0.00;;;17.80;99.90;;;;;;4947109;29;20031;-67
2022/06/08 03:27:25;;;;;;;0.00;0.00;;;17.80;99.90;;;;;;4930232;29;20175;-67
2022/06/08 03:29:51;;;;;;;0.00;0.00;;;17.80;99.90;;;;;;4929879;29;20045;-67
2022/06/08 03:32:17;;;;;;;0.00;0.00;;;17.80;99.90;;;;;;4947257;29;20043;-67
2022/06/08 03:34:42;;;;;;;0.00;0.00;;;17.80;99.90;;;;;;4947238;29;20075;-67
2022/06/08 03:37:09;;;;;;;0.00;0.00;;;17.80;99.90;;;;;;4945552;29;20023;-67
2022/06/08 03:39:35;;;;;;;0.00;0.00;;;17.70;99.90;;;;;;4947041;29;20019;-67
2022/06/08 03:42:01;;;;;;;0.00;0.00;;;17.80;99.90;;;;;;4946405;29;20023;-66
2022/06/08 03:44:27;;;;;;;0.00;0.00;;;17.80;99.90;;;;;;4946999;29;20073;-66
2022/06/08 03:46:58;;;;;;;0.00;0.00;;;17.80;99.90;;;;;;4946239;29;20024;-67
2022/06/08 03:49:25;;;;;;;0.00;0.00;;;17.90;99.90;;;;;;4946851;29;20035;-67
2022/06/08 03:51:54;;;;;;;0.00;0.00;;;17.90;99.90;;;;;;4946638;29;20067;-67
2022/06/08 03:54:23;;;;;;;0.00;0.00;;;18.00;99.90;;;;;;4946705;29;20024;-66
2022/06/08 03:56:51;;;;;;;0.00;0.00;;;18.00;99.90;;;;;;4929127;29;20019;-67
2022/06/08 03:59:17;;;;;;;0.00;0.00;;;18.10;99.90;;;;;;4946574;29;20036;-67
2022/06/08 04:01:43;;;;;;;0.00;0.00;;;18.10;99.90;;;;;;4929673;29;20066;-68
2022/06/08 04:04:09;;;;;;;0.00;0.00;;;18.10;99.90;;;;;;4946349;29;20060;-67
2022/06/08 04:06:34;;;;;;;0.00;0.00;;;18.10;99.90;;;;;;4946799;29;20024;-67
2022/06/08 04:09:00;;;;;;;0.00;0.00;;;18.10;99.90;;;;;;4929257;29;20323;-67
2022/06/08 04:11:26;;;;;;;0.00;0.00;;;18.20;99.90;;;;;;4946538;29;20024;-67
2022/06/08 04:13:52;;;;;;;0.00;0.00;;;18.20;99.90;;;;;;4929044;29;20264;-67
2022/06/08 04:16:19;;;;;;;0.00;0.00;;;18.20;99.90;;;;;;4946482;29;20031;-67
2022/06/08 04:18:45;;;;;;;0.00;0.00;;;18.20;99.90;;;;;;4946126;29;20311;-67
2022/06/08 04:21:12;;;;;;;0.00;0.00;;;18.20;99.90;;;;;;4928873;29;20043;-67
2022/06/08 04:23:41;;;;;;;0.00;0.00;;;18.10;99.90;;;;;;4946331;29;20051;-67
2022/06/08 04:26:07;;;;;;;0.00;0.00;;;18.10;99.90;;;;;;4945294;29;20102;-67
2022/06/08 04:28:34;;;;;;;0.00;0.00;;;18.10;99.90;;;;;;4946251;29;20207;-67
2022/06/08 04:30:59;;;;;;;0.00;0.00;;;18.10;99.90;;;;;;4945914;29;20042;-67
2022/06/08 04:33:25;;;;;;;0.00;0.00;;;18.10;99.90;;;;;;4946193;29;20019;-67
2022/06/08 04:35:51;;;;;;;0.00;0.00;;;18.10;99.90;;;;;;4946042;29;20214;-73
2022/06/08 04:38:17;;;;;;;0.00;0.00;;;18.10;99.90;;;;;;4945753;29;20099;-67
2022/06/08 04:40:44;;;;;;;0.00;0.00;;;18.10;99.90;;;;;;4945897;29;20032;-67
2022/06/08 04:43:09;;;;;;;0.00;0.00;;;18.10;99.90;;;;;;4944370;29;20035;-68
2022/06/08 04:45:36;;;;;;;0.00;0.00;;;18.20;99.90;;;;;;4946073;29;20050;-67
2022/06/08 04:48:04;;;;;;;0.00;0.00;;;18.20;99.90;;;;;;4945510;29;20087;-67
2022/06/08 04:50:30;;;;;;;0.00;0.00;;;18.20;99.90;;;;;;4945976;29;20024;-68
2022/06/08 04:52:56;;;;;;;0.00;0.00;;;18.20;99.90;;;;;;4928456;29;20348;-66
2022/06/08 04:55:25;;;;;;;0.00;0.00;;;18.30;99.90;;;;;;4945634;29;20028;-66
2022/06/08 04:57:51;;;;;;;0.00;0.00;;;18.30;99.90;;;;;;4944603;29;20031;-67
2022/06/08 05:00:21;;;;;;;0.00;0.00;;;18.30;99.90;;;;;;4928402;29;20031;-67
2022/06/08 05:02:48;;;;;;;0.00;0.00;;;18.40;99.90;;;;;;4945737;29;20016;-67
2022/06/08 05:05:20;;;;;;;0.00;0.00;;;18.40;99.90;;;;;;4926072;29;20246;-67
2022/06/08 05:07:46;;;;;;;0.00;0.00;;;18.40;99.90;;;;;;4926415;29;20051;-67
2022/06/08 05:10:12;;;;;;;0.00;0.00;;;18.50;99.90;;;;;;4909354;29;20099;-67
2022/06/08 05:12:39;;;;;;;0.00;0.00;;;18.50;99.90;;;;;;4909697;29;20344;-67
2022/06/08 05:15:10;;;;;;;0.00;0.00;;;18.50;99.90;;;;;;4908869;29;20019;-67
2022/06/08 05:17:36;;;;;;;0.00;0.00;;;18.50;99.90;;;;;;4926312;29;20226;-67
2022/06/08 05:20:04;;;;;;;0.00;0.00;;;18.60;99.90;;;;;;4926225;29;20084;-67
2022/06/08 05:22:30;;;;;;;0.00;0.00;;;18.60;99.90;;;;;;4926576;29;20019;-67
2022/06/08 05:24:57;;;;;;;0.00;0.00;;;18.60;99.90;;;;;;4925671;29;20091;-67
2022/06/08 05:27:22;;;;;;;0.00;0.00;;;18.70;99.90;;;;;;4909481;29;20020;-67
2022/06/08 05:29:48;;;;;;;0.00;0.00;;;18.70;99.90;;;;;;4926503;29;20330;-67
2022/06/08 05:32:14;;;;;;;0.00;0.00;;;18.80;99.90;;;;;;4925677;29;20320;-67
2022/06/08 05:34:40;;;;;;;0.00;0.00;;;18.90;99.90;;;;;;4926226;29;20035;-67
2022/06/08 05:37:05;;;;;;;0.00;0.00;;;19.00;99.90;;;;;;4926124;29;20039;-67
2022/06/08 05:39:31;;;;;;;0.00;0.00;;;19.10;99.90;;;;;;4909555;29;20284;-67
2022/06/08 05:41:57;;;;;;;0.00;0.00;;;19.20;99.90;;;;;;4926128;29;20024;-68
2022/06/08 05:44:23;;;;;;;0.00;0.00;;;19.20;99.90;;;;;;4926118;29;20076;-67
2022/06/08 05:46:50;;;;;;;0.00;0.00;;;19.30;99.90;;;;;;4926673;29;20120;-68
2022/06/08 05:49:17;;;;;;;0.00;0.00;;;19.40;99.90;;;;;;4925843;29;20329;-67
2022/06/08 05:51:43;;;;;;;0.00;0.00;;;19.40;99.90;;;;;;4926379;29;20126;-67
2022/06/08 05:54:10;;;;;;;0.00;0.00;;;19.60;99.90;;;;;;4925682;29;20044;-67
2022/06/08 05:56:37;;;;;;;0.00;0.00;;;19.60;99.90;;;;;;4926270;29;20310;-67
2022/06/08 05:59:04;;;;;;;0.00;0.00;;;19.70;99.90;;;;;;4909167;29;20096;-67
2022/06/08 06:01:31;;;;;;;0.00;0.00;;;19.80;99.90;;;;;;4929871;29;20020;-66
2022/06/08 06:03:59;;;;;;;0.00;0.00;;;19.80;99.90;;;;;;4921131;29;20056;-74
2022/06/08 06:06:25;;;;;;;0.00;0.00;;;19.80;99.90;;;;;;4948560;29;20098;-67
2022/06/08 06:08:51;;;;;;;0.00;0.00;;;19.80;99.90;;;;;;4931211;29;20032;-67
2022/06/08 06:11:16;;;;;;;0.00;0.00;;;19.80;99.90;;;;;;4931033;29;20020;-66
2022/06/08 06:13:42;;;;;;;0.00;0.00;;;19.90;99.90;;;;;;4948735;29;20082;-67
2022/06/08 06:16:09;;;;;;;0.00;0.00;;;20.00;99.90;;;;;;4931336;29;20023;-67
2022/06/08 06:18:35;;;;;;;0.00;0.00;;;20.10;99.90;;;;;;4931564;29;20035;-67
2022/06/08 06:21:01;;;;;;;0.00;0.00;;;20.20;99.90;;;;;;4948064;29;20115;-67
2022/06/08 06:23:27;;;;;;;0.00;0.00;;;20.40;99.90;;;;;;4948602;29;20236;-66
2022/06/08 06:25:53;;;;;;;0.00;0.00;;;20.60;99.90;;;;;;4948146;29;20072;-67
2022/06/08 06:28:19;;;;;;;0.00;0.00;;;20.90;99.90;;;;;;4948187;29;20039;-67
2022/06/08 06:30:44;;;;;;;0.00;0.00;;;21.10;99.90;;;;;;4948357;29;20020;-66
2022/06/08 06:33:12;;;;;;;0.00;0.00;;;21.40;99.90;;;;;;4947909;29;20079;-67
2022/06/08 06:35:38;;;;;;;0.00;0.00;;;21.50;99.90;;;;;;4931439;29;20019;-67
2022/06/08 06:38:04;;;;;;;0.00;0.00;;;21.50;99.90;;;;;;4948052;29;20047;-67
2022/06/08 06:40:30;;;;;;;0.00;0.00;;;21.50;99.90;;;;;;4948475;29;20086;-67
2022/06/08 06:42:56;;;;;;;0.00;0.00;;;21.50;99.90;;;;;;4948173;29;20026;-67
2022/06/08 06:45:22;;;;;;;0.00;0.00;;;21.40;99.90;;;;;;4930820;29;20232;-67
2022/06/08 06:47:49;;;;;;;0.00;0.00;;;21.40;99.90;;;;;;4931109;29;20027;-67
2022/06/08 06:50:16;;;;;;;0.00;0.00;;;21.50;99.90;;;;;;4947755;29;20079;-67
2022/06/08 06:52:42;;;;;;;0.00;0.00;;;21.60;99.90;;;;;;4948046;29;20023;-67
2022/06/08 06:55:22;;;;;;;0.00;0.00;;;21.80;99.90;;;;;;4947550;29;20020;-67
2022/06/08 06:57:48;;;;;;;0.00;0.00;;;22.00;99.90;;;;;;4948350;29;20035;-67
2022/06/08 07:00:16;;;;;;;0.00;0.00;;;22.40;99.90;;;;;;4930691;29;20072;-67
2022/06/08 07:02:42;;;;;;;0.00;0.00;;;22.70;99.90;;;;;;4931369;29;20085;-67
2022/06/08 07:05:21;;;;;;;0.00;0.00;;;23.00;99.90;;;;;;4930439;29;20055;-67
2022/06/08 07:07:48;;;;;;;0.00;0.00;;;23.30;99.90;;;;;;4947931;29;20079;-67
2022/06/08 07:10:14;;;;;;;0.00;0.00;;;23.70;99.90;;;;;;4947146;29;20028;-67
2022/06/08 07:12:40;;;;;;;0.00;0.00;;;24.00;99.90;;;;;;4946831;29;20023;-67
2022/06/08 07:15:07;;;;;;;0.00;0.00;;;24.00;99.20;;;;;;4947242;29;20179;-68
2022/06/08 07:17:32;;;;;;;0.00;0.00;;;23.90;98.70;;;;;;4930480;29;20051;-67
2022/06/08 07:19:58;;;;;;;0.00;0.00;;;24.00;99.70;;;;;;4947483;29;20035;-67
2022/06/08 07:22:24;;;;;;;0.00;0.00;;;24.00;99.70;;;;;;4947073;29;20307;-67
2022/06/08 07:24:49;;;;;;;0.00;0.00;;;24.00;99.40;;;;;;4930456;29;20239;-67
2022/06/08 07:27:16;;;;;;;0.00;0.00;;;24.10;99.00;;;;;;4946910;29;20031;-67
2022/06/08 07:29:42;;;;;;;0.00;0.00;;;24.00;98.90;;;;;;4947203;29;20311;-68
2022/06/08 07:32:08;;;;;;;0.00;0.00;;;23.90;98.60;;;;;;4946765;29;20054;-67
2022/06/08 07:34:34;;;;;;;0.00;0.00;;;23.70;98.00;;;;;;4947058;29;20023;-67
2022/06/08 07:37:00;;;;;;;0.00;0.00;;;23.30;98.10;;;;;;4945933;29;20024;-67
2022/06/08 07:39:26;;;;;;;0.00;0.00;;;23.30;98.90;;;;;;4946485;29;20039;-67
2022/06/08 07:41:52;;;;;;;0.00;0.00;;;23.20;99.30;;;;;;4947051;29;20019;-68
2022/06/08 07:44:18;;;;;;;0.00;0.00;;;23.20;99.40;;;;;;4929625;29;20252;-67
2022/06/08 07:46:45;;;;;;;0.00;0.00;;;23.20;99.50;;;;;;4947038;29;20026;-68
2022/06/08 07:51:56;;;;;;;0.00;0.00;;;23.00;99.30;;;;;;4946772;29;20106;-67
2022/06/08 07:54:24;;;;;;;0.00;0.00;;;23.10;99.90;;;;;;4946431;29;20291;-67
2022/06/08 07:56:51;;;;;;;0.00;0.00;;;23.00;99.40;;;;;;4946630;29;20106;-67
2022/06/08 07:59:18;;;;;;;0.00;0.00;;;23.10;98.90;;;;;;4946275;29;20031;-67
2022/06/08 08:01:44;;;;;;;0.00;0.00;;;23.10;99.40;;;;;;4946791;29;20083;-68
2022/06/08 08:04:09;;;;;;;0.00;0.00;;;23.30;99.90;;;;;;4936037;29;20052;-67
2022/06/08 08:06:35;;;;;;;0.00;0.00;;;23.80;99.70;;;;;;4927349;29;20068;-67
2022/06/08 08:09:00;;;;;;;0.00;0.00;;;24.10;98.50;;;;;;4927130;29;20274;-67
2022/06/08 08:11:27;;;;;;;0.00;0.00;;;24.40;98.30;;;;;;4927122;29;20032;-67
2022/06/08 08:13:53;;;;;;;0.00;0.00;;;24.60;97.50;;;;;;4926189;29;20108;-68
2022/06/08 08:16:19;;;;;;;0.00;0.00;;;24.70;96.70;;;;;;4910259;29;20028;-68
2022/06/08 08:18:44;;;;;;;0.00;0.00;;;24.90;97.10;;;;;;4927039;29;20219;-68
2022/06/08 08:21:10;;;;;;;0.00;0.00;;;25.00;96.60;;;;;;4910031;29;20072;-68
2022/06/08 08:23:36;;;;;;;0.00;0.00;;;25.10;96.00;;;;;;4926755;29;20310;-68
2022/06/08 08:26:02;;;;;;;0.00;0.00;;;25.30;95.20;;;;;;4926845;29;20079;-67
2022/06/08 08:28:28;;;;;;;0.00;0.00;;;25.40;95.20;;;;;;4926792;29;20066;-68
2022/06/08 08:30:54;;;;;;;0.00;0.00;;;25.30;94.60;;;;;;4926975;29;20028;-68
2022/06/08 08:33:19;;;;;;;0.00;0.00;;;25.40;94.40;;;;;;4926364;29;20142;-68
2022/06/08 08:35:45;;;;;;;0.00;0.00;;;25.30;93.80;;;;;;4927048;29;20035;-68
2022/06/08 08:38:11;;;;;;;0.00;0.00;;;25.30;93.30;;;;;;4926533;29;20028;-68
2022/06/08 08:40:45;;;;;;;0.00;0.00;;;25.20;92.70;;;;;;4926317;29;20288;-67
2022/06/08 08:43:23;;;;;;;0.00;0.00;;;25.20;93.20;;;;;;4926161;29;20391;-68
2022/06/08 08:46:21;;;;;;;0.00;0.00;;;25.30;93.90;;;;;;4926711;29;20027;-68
2022/06/08 08:49:00;;;;;;;0.00;0.00;;;25.40;93.90;;;;;;4926800;29;20031;-68
2022/06/08 08:51:33;;;;;;;0.00;0.00;;;25.20;92.80;;;;;;4926142;29;20202;-68
2022/06/08 08:54:38;;;;;;;0.00;0.00;;;25.20;92.40;;;;;;4926752;29;20012;-68
2022/06/08 08:57:20;;;;;;;0.00;0.00;;;25.20;93.20;;;;;;4909843;29;20024;-68
2022/06/08 08:59:51;;;;;;;0.00;0.00;;;25.30;93.00;;;;;;4926481;29;20032;-67
2022/06/08 09:03:14;;;;;;;0.00;0.00;;;25.20;92.00;;;;;;4926243;29;20087;-67
2022/06/08 09:05:16;;;;;;;0.00;0.00;;;25.20;91.70;;;;;;4925669;29;20051;-67
2022/06/08 09:07:42;;;;;;;0.00;0.00;;;25.20;92.20;;;;;;4926423;29;20030;-67
2022/06/08 09:10:20;;;;;;;0.00;0.00;;;25.20;91.10;;;;;;4909283;29;20223;-68
2022/06/08 09:12:46;;;;;;;0.00;0.00;;;25.10;91.10;;;;;;4926237;29;20028;-67
2022/06/08 09:15:15;;;;;;;0.00;0.00;;;25.10;91.20;;;;;;4925958;29;20043;-68
2022/06/08 09:17:58;;;;;;;0.00;0.00;;;25.30;91.50;;;;;;4926199;29;20036;-66
2022/06/08 09:20:35;;;;;;;0.00;0.00;;;25.60;91.90;;;;;;4925912;29;20028;-68
2022/06/08 09:23:31;;;;;;;0.00;0.00;;;25.90;91.30;;;;;;4926032;29;20051;-68
2022/06/08 09:26:14;;;;;;;0.00;0.00;;;26.20;91.20;;;;;;4909267;29;20075;-68
2022/06/08 09:28:41;;;;;;;0.00;0.00;;;26.20;90.10;;;;;;4926497;29;20028;-68
2022/06/08 09:31:33;;;;;;;0.00;0.00;;;26.20;88.60;;;;;;4926258;29;20020;-68
2022/06/08 09:34:24;;;;;;;0.00;0.00;;;26.10;89.30;;;;;;4926281;29;20080;-68
2022/06/08 09:37:26;;;;;;;0.00;0.00;;;26.20;89.10;;;;;;4930359;29;20076;-68
2022/06/08 09:39:54;;;;;;;0.00;0.00;;;26.20;89.90;;;;;;4890095;29;20079;-67
2022/06/08 09:42:51;;;;;;;0.00;0.00;;;26.30;87.70;;;;;;4928452;29;20099;-68
2022/06/08 09:45:29;;;;;;;0.00;0.00;;;26.20;86.30;;;;;;4897536;29;20023;-69
2022/06/08 09:53:49;;;;;;;0.00;0.00;;;26.30;87.50;;;;;;4929369;29;20072;-67
2022/06/08 09:56:20;;;;;;;0.00;0.00;;;26.30;88.00;;;;;;4929609;29;20024;-68
2022/06/08 09:59:05;;;;;;;0.00;0.00;;;26.30;87.70;;;;;;4929411;29;20315;-68
2022/06/08 10:01:39;;;;;;;0.00;0.00;;;26.30;88.40;;;;;;4912303;29;20083;-68
2022/06/08 10:04:42;;;;;;;0.00;0.00;;;26.30;87.40;;;;;;4929159;29;20069;-68
2022/06/08 10:07:17;;;;;;;0.00;0.00;;;26.20;87.60;;;;;;4912643;29;20283;-67
2022/06/08 10:10:10;;;;;;;0.00;0.00;;;26.00;84.80;;;;;;4912592;29;20299;-67
2022/06/08 10:12:55;;;;;;;0.00;0.00;;;25.90;86.90;;;;;;4912157;29;20020;-68
2022/06/08 10:15:34;;;;;;;0.00;0.00;;;25.80;85.90;;;;;;4912552;29;20314;-69
2022/06/08 10:18:22;;;;;;;0.00;0.00;;;25.90;87.70;;;;;;4912463;29;20043;-67
2022/06/08 10:20:52;;;;;;;0.00;0.00;;;25.90;89.00;;;;;;4929449;29;20096;-68
2022/06/08 10:23:42;;;;;;;0.00;0.00;;;25.90;86.40;;;;;;4912131;29;20051;-68
2022/06/08 10:26:30;;;;;;;0.00;0.00;;;25.90;87.50;;;;;;4912579;29;20209;-68
2022/06/08 10:29:32;;;;;;;0.00;0.00;;;25.90;87.50;;;;;;4929133;29;20047;-68
2022/06/08 10:32:12;;;;;;;0.00;0.00;;;26.00;87.10;;;;;;4926584;29;20263;-69
2022/06/08 10:34:38;;;;;;;0.00;0.00;;;25.90;86.00;;;;;;4911959;29;20126;-69
2022/06/08 10:37:16;;;;;;;0.00;0.00;;;25.80;85.70;;;;;;4911864;29;20024;-68
2022/06/08 10:39:44;;;;;;;0.00;0.00;;;25.70;86.80;;;;;;4928850;29;20036;-68
2022/06/08 10:42:40;;;;;;;0.00;0.00;;;25.60;85.80;;;;;;4928843;29;20076;-68
2022/06/08 10:45:21;;;;;;;0.00;0.00;;;25.50;86.30;;;;;;4928792;29;20027;-68
2022/06/08 10:48:13;;;;;;;0.00;0.00;;;25.40;87.00;;;;;;4912102;29;20028;-68
2022/06/08 10:50:48;;;;;;;0.00;0.00;;;25.20;86.30;;;;;;4920141;29;20103;-68
2022/06/08 10:56:23;;;;;;;0.00;0.00;;;24.90;87.00;;;;;;4928723;29;20035;-68
2022/06/08 10:59:07;;;;;;;0.00;0.00;;;24.70;85.80;;;;;;4928556;29;20036;-68
2022/06/08 11:01:57;;;;;;;0.00;0.00;;;24.60;86.70;;;;;;4911592;29;20024;-67
2022/06/08 11:04:38;;;;;;;0.00;0.00;;;24.60;86.80;;;;;;4928119;29;20115;-68
2022/06/08 11:07:05;;;;;;;0.00;0.00;;;24.60;86.60;;;;;;4928857;29;20195;-69
2022/06/08 11:09:34;;;;;;;0.00;0.00;;;24.60;86.30;;;;;;4910945;29;20028;-68
2022/06/08 11:12:12;;;;;;;0.00;0.00;;;24.60;86.90;;;;;;4928725;29;20027;-68
2022/06/08 11:14:43;;;;;;;0.00;0.00;;;24.70;88.20;;;;;;4910941;29;20068;-68
2022/06/08 11:17:39;;;;;;;0.00;0.00;;;24.70;88.00;;;;;;4928668;29;20084;-69
2022/06/08 11:20:23;;;;;;;0.00;0.00;;;24.80;87.50;;;;;;4911904;29;20219;-68
2022/06/08 11:23:01;;;;;;;0.00;0.00;;;24.80;87.50;;;;;;4911095;29;20196;-67
2022/06/08 11:25:48;;;;;;;0.00;0.00;;;24.90;87.00;;;;;;4911183;29;20024;-69
2022/06/08 11:28:36;;;;;;;0.00;0.00;;;24.90;86.60;;;;;;4928426;29;20030;-69
2022/06/08 11:31:11;;;;;;;0.00;0.00;;;24.90;86.60;;;;;;4928367;29;20091;-69
2022/06/08 11:33:55;;;;;;;0.00;0.00;;;25.00;85.90;;;;;;4910850;29;20322;-68
2022/06/08 11:36:43;;;;;;;0.00;0.00;;;25.00;85.90;;;;;;4927487;29;20024;-72
2022/06/08 11:39:45;;;;;;;0.00;0.00;;;25.00;86.60;;;;;;4928079;29;20087;-68
2022/06/08 11:42:29;;;;;;;0.00;0.00;;;25.10;86.50;;;;;;4927820;29;20024;-67
2022/06/08 11:45:09;;;;;;;0.00;0.00;;;25.20;87.70;;;;;;4911375;29;20075;-68
2022/06/08 11:47:49;;;;;;;0.00;0.00;;;25.40;89.90;;;;;;4927473;29;20051;-68
2022/06/08 11:50:16;;;;;;;0.00;0.00;;;25.70;89.90;;;;;;4910695;29;20024;-68
2022/06/08 11:52:46;;;;;;;0.00;0.00;;;26.00;88.30;;;;;;4927434;29;20028;-69
2022/06/08 11:55:25;;;;;;;0.00;0.00;;;26.20;88.30;;;;;;4928206;29;20038;-69
2022/06/08 11:58:16;;;;;;;0.00;0.00;;;26.40;86.30;;;;;;4927429;29;20032;-69
2022/06/08 12:00:42;;;;;;;0.00;0.00;;;26.30;84.80;;;;;;4910775;29;20032;-68
2022/06/08 12:03:42;;;;;;;0.00;0.00;;;26.30;84.60;;;;;;4910663;29;20325;-68
2022/06/08 12:06:33;;;;;;;0.00;0.00;;;26.30;85.10;;;;;;4906135;29;20076;-68
2022/06/08 12:09:26;;;;;;;0.00;0.00;;;26.20;83.10;;;;;;4928048;29;20024;-68
2022/06/08 12:11:55;;;;;;;0.00;0.00;;;26.20;83.80;;;;;;4927393;29;20048;-68
2022/06/08 12:14:29;;;;;;;0.00;0.00;;;26.10;83.90;;;;;;4927302;29;20297;-68
2022/06/08 12:17:23;;;;;;;0.00;0.00;;;26.10;84.50;;;;;;4927622;29;20087;-67
2022/06/08 12:19:55;;;;;;;0.00;0.00;;;26.00;85.10;;;;;;4910502;29;20032;-67
2022/06/08 12:22:30;;;;;;;0.00;0.00;;;26.00;84.20;;;;;;4927278;29;20024;-67
2022/06/08 12:25:18;;;;;;;0.00;0.00;;;26.00;85.30;;;;;;4927357;29;20016;-68
2022/06/08 12:27:57;;;;;;;0.00;0.00;;;25.90;84.60;;;;;;4926953;29;20403;-68
2022/06/08 12:30:43;;;;;;;0.00;0.00;;;25.90;84.30;;;;;;4910215;29;20020;-68
2022/06/08 12:33:18;;;;;;;0.00;0.00;;;26.00;85.90;;;;;;4910022;29;20016;-68
2022/06/08 12:35:54;;;;;;;0.00;0.00;;;26.10;85.70;;;;;;4926400;29;20051;-68
2022/06/08 12:38:34;;;;;;;0.00;0.00;;;26.10;84.10;;;;;;4926840;29;20115;-68
2022/06/08 12:41:12;;;;;;;0.00;0.00;;;26.10;84.80;;;;;;4926956;29;20032;-68
2022/06/08 12:44:00;;;;;;;0.00;0.00;;;26.10;82.60;;;;;;4926683;29;20083;-68
2022/06/08 12:46:31;;;;;;;0.00;0.00;;;26.10;84.10;;;;;;4915955;29;20040;-69
2022/06/08 12:49:15;;;;;;;0.00;0.00;;;26.10;84.70;;;;;;4909947;29;20038;-67
2022/06/08 12:51:50;;;;;;;0.00;0.00;;;26.10;84.50;;;;;;4909496;29;20322;-67
2022/06/08 12:54:30;;;;;;;0.00;0.00;;;26.00;83.80;;;;;;4926950;29;20032;-68
2022/06/08 12:57:28;;;;;;;0.00;0.00;;;26.00;85.90;;;;;;4926748;29;20032;-68
2022/06/08 12:59:57;;;;;;;0.00;0.00;;;26.20;85.80;;;;;;4910071;29;20103;-67
2022/06/08 13:02:37;;;;;;;0.00;0.00;;;26.40;84.80;;;;;;4909924;29;20202;-68
2022/06/08 13:05:15;;;;;;;0.00;0.00;;;26.40;81.70;;;;;;4926689;29;20056;-68
2022/06/08 13:07:42;;;;;;;0.00;0.00;;;26.50;81.10;;;;;;4945423;29;20331;-69
2022/06/08 13:10:08;;;;;;;0.00;0.00;;;26.50;81.30;;;;;;4928685;29;20321;-69
2022/06/08 13:12:41;;;;;;;0.00;0.00;;;26.60;78.50;;;;;;4928363;29;20031;-69
2022/06/08 13:15:19;;;;;;;0.00;0.00;;;26.60;78.30;;;;;;4912834;29;20072;-67
2022/06/08 13:17:46;;;;;;;0.00;0.00;;;26.60;78.30;;;;;;4927697;29;20027;-68
2022/06/08 13:20:18;;;;;;;0.00;0.00;;;26.60;77.80;;;;;;4945431;29;20020;-68
2022/06/08 13:22:44;;;;;;;0.00;0.00;;;26.60;78.20;;;;;;4927758;29;20028;-68
2022/06/08 13:25:15;;;;;;;0.00;0.00;;;26.50;76.50;;;;;;4928362;29;20020;-69
2022/06/08 13:27:41;;;;;;;0.00;0.00;;;26.40;75.30;;;;;;4944667;29;20027;-68
2022/06/08 13:30:07;;;;;;;0.00;0.00;;;26.30;76.20;;;;;;4943962;29;20047;-68
2022/06/08 13:32:32;;;;;;;0.00;0.00;;;26.30;77.80;;;;;;4944750;29;20043;-68